sensor_id;sensor_type;location;lat;lon;timestamp;P1;durP1;ratioP1;P2;durP2;ratioP2
11771;SDS011;12556;55.748;13.194;2023-03-14T00:02:22;24.43;;;5.97;;
11771;SDS011;12556;55.748;13.194;2023-03-14T00:04:49;24.77;;;6.00;;
11771;SDS011;12556;55.748;13.194;2023-03-14T00:07:19;20.37;;;5.63;;
11771;SDS011;12556;55.748;13.194;2023-03-14T00:09:47;24.00;;;5.53;;
11771;SDS011;12556;55.748;13.194;2023-03-14T00:12:14;28.83;;;6.13;;
11771;SDS011;12556;55.748;13.194;2023-03-14T00:14:41;19.73;;;5.87;;
11771;SDS011;12556;55.748;13.194;2023-03-14T00:17:08;20.17;;;5.60;;
11771;SDS011;12556;55.748;13.194;2023-03-14T00:19:36;16.47;;;5.03;;
11771;SDS011;12556;55.748;13.194;2023-03-14T00:22:03;18.20;;;5.23;;
11771;SDS011;12556;55.748;13.194;2023-03-14T00:24:30;17.23;;;5.10;;
11771;SDS011;12556;55.748;13.194;2023-03-14T00:26:58;21.13;;;5.43;;
11771;SDS011;12556;55.748;13.194;2023-03-14T00:29:25;18.13;;;4.83;;
11771;SDS011;12556;55.748;13.194;2023-03-14T00:31:52;19.03;;;5.23;;
11771;SDS011;12556;55.748;13.194;2023-03-14T00:34:20;19.37;;;5.07;;
11771;SDS011;12556;55.748;13.194;2023-03-14T00:36:47;20.43;;;4.87;;
11771;SDS011;12556;55.748;13.194;2023-03-14T00:39:13;28.27;;;5.10;;
11771;SDS011;12556;55.748;13.194;2023-03-14T00:41:41;21.67;;;5.70;;
11771;SDS011;12556;55.748;13.194;2023-03-14T00:44:09;16.00;;;4.83;;
11771;SDS011;12556;55.748;13.194;2023-03-14T00:46:36;18.40;;;5.17;;
11771;SDS011;12556;55.748;13.194;2023-03-14T00:49:03;16.67;;;4.97;;
11771;SDS011;12556;55.748;13.194;2023-03-14T00:51:30;15.60;;;5.57;;
11771;SDS011;12556;55.748;13.194;2023-03-14T00:53:57;20.73;;;5.37;;
11771;SDS011;12556;55.748;13.194;2023-03-14T00:56:25;15.43;;;5.53;;
11771;SDS011;12556;55.748;13.194;2023-03-14T00:58:53;16.40;;;4.90;;
11771;SDS011;12556;55.748;13.194;2023-03-14T01:01:22;14.17;;;4.70;;
11771;SDS011;12556;55.748;13.194;2023-03-14T01:03:50;20.00;;;5.03;;
11771;SDS011;12556;55.748;13.194;2023-03-14T01:06:18;17.00;;;4.67;;
11771;SDS011;12556;55.748;13.194;2023-03-14T01:08:47;19.03;;;5.87;;
11771;SDS011;12556;55.748;13.194;2023-03-14T01:11:15;17.13;;;5.40;;
11771;SDS011;12556;55.748;13.194;2023-03-14T01:13:44;28.77;;;5.53;;
11771;SDS011;12556;55.748;13.194;2023-03-14T01:16:11;10.97;;;3.80;;
11771;SDS011;12556;55.748;13.194;2023-03-14T01:18:41;18.30;;;4.70;;
11771;SDS011;12556;55.748;13.194;2023-03-14T01:21:11;12.27;;;4.17;;
11771;SDS011;12556;55.748;13.194;2023-03-14T01:23:39;17.07;;;5.27;;
11771;SDS011;12556;55.748;13.194;2023-03-14T01:26:07;19.87;;;4.67;;
11771;SDS011;12556;55.748;13.194;2023-03-14T01:28:35;20.07;;;4.83;;
11771;SDS011;12556;55.748;13.194;2023-03-14T01:31:03;12.67;;;4.93;;
11771;SDS011;12556;55.748;13.194;2023-03-14T01:33:30;16.67;;;4.13;;
11771;SDS011;12556;55.748;13.194;2023-03-14T01:35:58;20.23;;;4.60;;
11771;SDS011;12556;55.748;13.194;2023-03-14T01:38:27;18.37;;;4.93;;
11771;SDS011;12556;55.748;13.194;2023-03-14T01:40:54;15.33;;;5.50;;
11771;SDS011;12556;55.748;13.194;2023-03-14T01:43:21;15.80;;;4.50;;
11771;SDS011;12556;55.748;13.194;2023-03-14T01:49:02;22.23;;;5.50;;
11771;SDS011;12556;55.748;13.194;2023-03-14T01:51:35;17.30;;;5.47;;
11771;SDS011;12556;55.748;13.194;2023-03-14T01:54:08;18.77;;;4.67;;
11771;SDS011;12556;55.748;13.194;2023-03-14T01:56:39;18.57;;;4.90;;
11771;SDS011;12556;55.748;13.194;2023-03-14T01:59:09;16.63;;;4.60;;
11771;SDS011;12556;55.748;13.194;2023-03-14T02:01:38;20.30;;;4.13;;
11771;SDS011;12556;55.748;13.194;2023-03-14T02:04:09;14.97;;;4.87;;
11771;SDS011;12556;55.748;13.194;2023-03-14T02:06:42;11.50;;;4.10;;
11771;SDS011;12556;55.748;13.194;2023-03-14T02:09:14;24.23;;;5.17;;
11771;SDS011;12556;55.748;13.194;2023-03-14T02:11:41;16.40;;;5.33;;
11771;SDS011;12556;55.748;13.194;2023-03-14T02:14:09;17.20;;;4.80;;
11771;SDS011;12556;55.748;13.194;2023-03-14T02:16:45;16.07;;;5.13;;
11771;SDS011;12556;55.748;13.194;2023-03-14T02:19:12;15.87;;;4.67;;
11771;SDS011;12556;55.748;13.194;2023-03-14T02:21:47;15.43;;;4.60;;
11771;SDS011;12556;55.748;13.194;2023-03-14T02:24:20;18.27;;;4.63;;
11771;SDS011;12556;55.748;13.194;2023-03-14T02:27:13;17.70;;;4.77;;
11771;SDS011;12556;55.748;13.194;2023-03-14T02:29:45;15.30;;;4.97;;
11771;SDS011;12556;55.748;13.194;2023-03-14T02:32:17;11.50;;;3.83;;
11771;SDS011;12556;55.748;13.194;2023-03-14T02:34:45;16.00;;;4.23;;
11771;SDS011;12556;55.748;13.194;2023-03-14T02:37:16;15.57;;;4.70;;
11771;SDS011;12556;55.748;13.194;2023-03-14T02:39:45;17.40;;;5.03;;
11771;SDS011;12556;55.748;13.194;2023-03-14T02:42:15;19.27;;;4.47;;
11771;SDS011;12556;55.748;13.194;2023-03-14T02:44:49;13.00;;;4.20;;
11771;SDS011;12556;55.748;13.194;2023-03-14T02:47:18;21.03;;;4.20;;
11771;SDS011;12556;55.748;13.194;2023-03-14T02:49:48;18.83;;;4.43;;
11771;SDS011;12556;55.748;13.194;2023-03-14T02:52:17;10.90;;;3.73;;
11771;SDS011;12556;55.748;13.194;2023-03-14T02:54:44;16.00;;;4.77;;
11771;SDS011;12556;55.748;13.194;2023-03-14T02:57:10;23.13;;;5.07;;
11771;SDS011;12556;55.748;13.194;2023-03-14T02:59:39;13.93;;;4.03;;
11771;SDS011;12556;55.748;13.194;2023-03-14T03:02:06;14.97;;;4.03;;
11771;SDS011;12556;55.748;13.194;2023-03-14T03:04:32;17.20;;;4.43;;
11771;SDS011;12556;55.748;13.194;2023-03-14T03:06:59;17.80;;;4.40;;
11771;SDS011;12556;55.748;13.194;2023-03-14T03:09:26;17.47;;;4.47;;
11771;SDS011;12556;55.748;13.194;2023-03-14T03:11:53;12.43;;;3.90;;
11771;SDS011;12556;55.748;13.194;2023-03-14T03:14:20;10.73;;;4.77;;
11771;SDS011;12556;55.748;13.194;2023-03-14T03:16:48;15.27;;;4.20;;
11771;SDS011;12556;55.748;13.194;2023-03-14T03:19:15;14.87;;;4.10;;
11771;SDS011;12556;55.748;13.194;2023-03-14T03:21:42;20.93;;;5.43;;
11771;SDS011;12556;55.748;13.194;2023-03-14T03:24:09;20.60;;;4.80;;
11771;SDS011;12556;55.748;13.194;2023-03-14T03:26:36;17.33;;;5.00;;
11771;SDS011;12556;55.748;13.194;2023-03-14T03:29:03;17.07;;;4.40;;
11771;SDS011;12556;55.748;13.194;2023-03-14T03:31:30;17.20;;;4.37;;
11771;SDS011;12556;55.748;13.194;2023-03-14T03:33:59;22.90;;;5.23;;
11771;SDS011;12556;55.748;13.194;2023-03-14T03:36:25;21.17;;;5.78;;
11771;SDS011;12556;55.748;13.194;2023-03-14T03:38:52;17.17;;;4.63;;
11771;SDS011;12556;55.748;13.194;2023-03-14T03:41:19;16.13;;;4.33;;
11771;SDS011;12556;55.748;13.194;2023-03-14T03:43:46;20.80;;;4.77;;
11771;SDS011;12556;55.748;13.194;2023-03-14T03:46:13;17.33;;;4.17;;
11771;SDS011;12556;55.748;13.194;2023-03-14T03:48:40;22.47;;;5.50;;
11771;SDS011;12556;55.748;13.194;2023-03-14T03:51:09;16.77;;;4.20;;
11771;SDS011;12556;55.748;13.194;2023-03-14T03:53:38;17.40;;;4.37;;
11771;SDS011;12556;55.748;13.194;2023-03-14T03:56:06;18.40;;;4.43;;
11771;SDS011;12556;55.748;13.194;2023-03-14T03:58:33;17.37;;;5.00;;
11771;SDS011;12556;55.748;13.194;2023-03-14T04:01:00;17.37;;;4.70;;
11771;SDS011;12556;55.748;13.194;2023-03-14T04:03:27;20.50;;;4.70;;
11771;SDS011;12556;55.748;13.194;2023-03-14T04:05:57;20.40;;;5.20;;
11771;SDS011;12556;55.748;13.194;2023-03-14T04:08:26;20.97;;;5.77;;
11771;SDS011;12556;55.748;13.194;2023-03-14T04:10:54;16.80;;;3.90;;
11771;SDS011;12556;55.748;13.194;2023-03-14T04:13:21;16.57;;;4.03;;
11771;SDS011;12556;55.748;13.194;2023-03-14T04:15:48;12.47;;;4.40;;
11771;SDS011;12556;55.748;13.194;2023-03-14T04:18:16;13.37;;;4.23;;
11771;SDS011;12556;55.748;13.194;2023-03-14T04:20:42;22.83;;;5.70;;
11771;SDS011;12556;55.748;13.194;2023-03-14T04:23:10;18.87;;;4.73;;
11771;SDS011;12556;55.748;13.194;2023-03-14T04:25:38;13.80;;;4.50;;
11771;SDS011;12556;55.748;13.194;2023-03-14T04:28:05;15.83;;;4.50;;
11771;SDS011;12556;55.748;13.194;2023-03-14T04:30:32;18.23;;;4.43;;
11771;SDS011;12556;55.748;13.194;2023-03-14T04:32:59;14.77;;;4.40;;
11771;SDS011;12556;55.748;13.194;2023-03-14T04:35:26;11.47;;;4.00;;
11771;SDS011;12556;55.748;13.194;2023-03-14T04:37:53;13.83;;;3.90;;
11771;SDS011;12556;55.748;13.194;2023-03-14T04:40:20;18.63;;;4.90;;
11771;SDS011;12556;55.748;13.194;2023-03-14T04:42:48;14.10;;;3.57;;
11771;SDS011;12556;55.748;13.194;2023-03-14T04:45:15;12.60;;;4.00;;
11771;SDS011;12556;55.748;13.194;2023-03-14T04:47:41;11.50;;;3.97;;
11771;SDS011;12556;55.748;13.194;2023-03-14T04:50:09;10.83;;;4.03;;
11771;SDS011;12556;55.748;13.194;2023-03-14T04:52:36;16.03;;;4.00;;
11771;SDS011;12556;55.748;13.194;2023-03-14T04:55:04;8.53;;;3.60;;
11771;SDS011;12556;55.748;13.194;2023-03-14T04:57:31;16.07;;;4.67;;
11771;SDS011;12556;55.748;13.194;2023-03-14T04:59:59;14.97;;;4.27;;
11771;SDS011;12556;55.748;13.194;2023-03-14T05:02:26;13.03;;;4.47;;
11771;SDS011;12556;55.748;13.194;2023-03-14T05:04:53;12.33;;;3.47;;
11771;SDS011;12556;55.748;13.194;2023-03-14T05:07:20;7.00;;;2.80;;
11771;SDS011;12556;55.748;13.194;2023-03-14T05:09:47;11.70;;;3.27;;
11771;SDS011;12556;55.748;13.194;2023-03-14T05:12:14;10.30;;;3.83;;
11771;SDS011;12556;55.748;13.194;2023-03-14T05:14:40;7.17;;;3.10;;
11771;SDS011;12556;55.748;13.194;2023-03-14T05:17:09;16.13;;;3.67;;
11771;SDS011;12556;55.748;13.194;2023-03-14T05:19:39;9.17;;;3.40;;
11771;SDS011;12556;55.748;13.194;2023-03-14T05:22:06;17.53;;;3.77;;
11771;SDS011;12556;55.748;13.194;2023-03-14T05:24:33;15.40;;;4.20;;
11771;SDS011;12556;55.748;13.194;2023-03-14T05:27:00;12.27;;;3.90;;
11771;SDS011;12556;55.748;13.194;2023-03-14T05:29:27;12.57;;;3.47;;
11771;SDS011;12556;55.748;13.194;2023-03-14T05:31:54;11.97;;;3.20;;
11771;SDS011;12556;55.748;13.194;2023-03-14T05:34:23;14.13;;;3.87;;
11771;SDS011;12556;55.748;13.194;2023-03-14T05:36:49;14.80;;;3.90;;
11771;SDS011;12556;55.748;13.194;2023-03-14T05:39:16;10.63;;;3.70;;
11771;SDS011;12556;55.748;13.194;2023-03-14T05:41:44;11.67;;;3.63;;
11771;SDS011;12556;55.748;13.194;2023-03-14T05:44:10;15.17;;;3.90;;
11771;SDS011;12556;55.748;13.194;2023-03-14T05:46:37;13.13;;;3.77;;
11771;SDS011;12556;55.748;13.194;2023-03-14T05:49:04;11.63;;;3.50;;
11771;SDS011;12556;55.748;13.194;2023-03-14T05:51:32;9.77;;;3.33;;
11771;SDS011;12556;55.748;13.194;2023-03-14T05:53:59;11.17;;;3.53;;
11771;SDS011;12556;55.748;13.194;2023-03-14T05:56:26;13.93;;;3.63;;
11771;SDS011;12556;55.748;13.194;2023-03-14T05:58:53;12.27;;;3.90;;
11771;SDS011;12556;55.748;13.194;2023-03-14T06:01:20;8.47;;;3.20;;
11771;SDS011;12556;55.748;13.194;2023-03-14T06:03:47;14.63;;;3.77;;
11771;SDS011;12556;55.748;13.194;2023-03-14T06:06:14;10.27;;;4.07;;
11771;SDS011;12556;55.748;13.194;2023-03-14T06:08:43;15.43;;;4.10;;
11771;SDS011;12556;55.748;13.194;2023-03-14T06:11:10;10.27;;;3.97;;
11771;SDS011;12556;55.748;13.194;2023-03-14T06:13:36;8.93;;;3.30;;
11771;SDS011;12556;55.748;13.194;2023-03-14T06:16:04;11.27;;;3.90;;
11771;SDS011;12556;55.748;13.194;2023-03-14T06:18:31;10.40;;;3.83;;
11771;SDS011;12556;55.748;13.194;2023-03-14T06:20:59;10.47;;;3.47;;
11771;SDS011;12556;55.748;13.194;2023-03-14T06:23:26;10.20;;;4.30;;
11771;SDS011;12556;55.748;13.194;2023-03-14T06:25:56;8.73;;;3.77;;
11771;SDS011;12556;55.748;13.194;2023-03-14T06:28:24;9.40;;;3.50;;
11771;SDS011;12556;55.748;13.194;2023-03-14T06:30:51;15.53;;;4.40;;
11771;SDS011;12556;55.748;13.194;2023-03-14T06:33:18;8.57;;;3.20;;
11771;SDS011;12556;55.748;13.194;2023-03-14T06:35:44;9.40;;;3.43;;
11771;SDS011;12556;55.748;13.194;2023-03-14T06:38:11;9.77;;;3.40;;
11771;SDS011;12556;55.748;13.194;2023-03-14T06:40:38;5.80;;;3.03;;
11771;SDS011;12556;55.748;13.194;2023-03-14T06:43:07;9.23;;;3.23;;
11771;SDS011;12556;55.748;13.194;2023-03-14T06:45:34;9.83;;;3.73;;
11771;SDS011;12556;55.748;13.194;2023-03-14T06:48:01;10.13;;;3.63;;
11771;SDS011;12556;55.748;13.194;2023-03-14T06:50:27;12.63;;;3.33;;
11771;SDS011;12556;55.748;13.194;2023-03-14T06:52:54;8.77;;;3.40;;
11771;SDS011;12556;55.748;13.194;2023-03-14T06:55:21;10.77;;;3.67;;
11771;SDS011;12556;55.748;13.194;2023-03-14T06:57:48;12.37;;;4.00;;
11771;SDS011;12556;55.748;13.194;2023-03-14T07:00:17;10.90;;;3.77;;
11771;SDS011;12556;55.748;13.194;2023-03-14T07:02:44;10.63;;;3.53;;
11771;SDS011;12556;55.748;13.194;2023-03-14T07:05:11;10.60;;;3.80;;
11771;SDS011;12556;55.748;13.194;2023-03-14T07:07:38;15.60;;;3.60;;
11771;SDS011;12556;55.748;13.194;2023-03-14T07:10:05;10.97;;;3.03;;
11771;SDS011;12556;55.748;13.194;2023-03-14T07:12:33;11.03;;;3.30;;
11771;SDS011;12556;55.748;13.194;2023-03-14T07:15:00;11.47;;;3.43;;
11771;SDS011;12556;55.748;13.194;2023-03-14T07:17:28;8.50;;;3.53;;
11771;SDS011;12556;55.748;13.194;2023-03-14T07:19:55;10.70;;;3.80;;
11771;SDS011;12556;55.748;13.194;2023-03-14T07:22:22;8.53;;;4.37;;
11771;SDS011;12556;55.748;13.194;2023-03-14T07:24:49;9.83;;;3.90;;
11771;SDS011;12556;55.748;13.194;2023-03-14T07:27:16;10.50;;;3.80;;
11771;SDS011;12556;55.748;13.194;2023-03-14T07:29:43;11.80;;;3.90;;
11771;SDS011;12556;55.748;13.194;2023-03-14T07:32:10;9.07;;;3.87;;
11771;SDS011;12556;55.748;13.194;2023-03-14T07:34:41;7.87;;;3.70;;
11771;SDS011;12556;55.748;13.194;2023-03-14T07:37:08;8.10;;;3.80;;
11771;SDS011;12556;55.748;13.194;2023-03-14T07:39:34;10.70;;;4.60;;
11771;SDS011;12556;55.748;13.194;2023-03-14T07:42:01;12.53;;;4.80;;
11771;SDS011;12556;55.748;13.194;2023-03-14T07:44:28;10.23;;;4.37;;
11771;SDS011;12556;55.748;13.194;2023-03-14T07:46:55;9.00;;;4.03;;
11771;SDS011;12556;55.748;13.194;2023-03-14T07:49:22;7.60;;;3.77;;
11771;SDS011;12556;55.748;13.194;2023-03-14T07:51:51;9.30;;;4.20;;
11771;SDS011;12556;55.748;13.194;2023-03-14T07:54:18;9.33;;;4.50;;
11771;SDS011;12556;55.748;13.194;2023-03-14T07:56:45;10.23;;;4.57;;
11771;SDS011;12556;55.748;13.194;2023-03-14T07:59:12;8.57;;;3.90;;
11771;SDS011;12556;55.748;13.194;2023-03-14T08:01:39;11.20;;;4.03;;
11771;SDS011;12556;55.748;13.194;2023-03-14T08:04:05;8.57;;;4.03;;
11771;SDS011;12556;55.748;13.194;2023-03-14T08:06:32;9.47;;;4.07;;
11771;SDS011;12556;55.748;13.194;2023-03-14T08:09:03;9.97;;;4.20;;
11771;SDS011;12556;55.748;13.194;2023-03-14T08:11:30;13.40;;;4.13;;
11771;SDS011;12556;55.748;13.194;2023-03-14T08:13:57;8.10;;;4.90;;
11771;SDS011;12556;55.748;13.194;2023-03-14T08:16:24;8.57;;;3.80;;
11771;SDS011;12556;55.748;13.194;2023-03-14T08:18:51;11.63;;;4.27;;
11771;SDS011;12556;55.748;13.194;2023-03-14T08:21:18;7.83;;;3.73;;
11771;SDS011;12556;55.748;13.194;2023-03-14T08:23:45;7.63;;;3.60;;
11771;SDS011;12556;55.748;13.194;2023-03-14T08:26:13;8.83;;;3.80;;
11771;SDS011;12556;55.748;13.194;2023-03-14T08:28:40;10.73;;;3.90;;
11771;SDS011;12556;55.748;13.194;2023-03-14T08:31:07;9.40;;;4.17;;
11771;SDS011;12556;55.748;13.194;2023-03-14T08:33:34;6.60;;;3.73;;
11771;SDS011;12556;55.748;13.194;2023-03-14T08:36:01;11.13;;;3.97;;
11771;SDS011;12556;55.748;13.194;2023-03-14T08:38:27;6.30;;;3.47;;
11771;SDS011;12556;55.748;13.194;2023-03-14T08:40:55;10.37;;;4.00;;
11771;SDS011;12556;55.748;13.194;2023-03-14T08:43:24;6.13;;;3.07;;
11771;SDS011;12556;55.748;13.194;2023-03-14T08:45:51;4.20;;;2.90;;
11771;SDS011;12556;55.748;13.194;2023-03-14T08:48:18;8.33;;;2.80;;
11771;SDS011;12556;55.748;13.194;2023-03-14T08:50:46;5.03;;;3.00;;
11771;SDS011;12556;55.748;13.194;2023-03-14T08:53:13;8.03;;;3.27;;
11771;SDS011;12556;55.748;13.194;2023-03-14T08:55:40;8.93;;;2.67;;
11771;SDS011;12556;55.748;13.194;2023-03-14T08:58:07;5.37;;;2.60;;
11771;SDS011;12556;55.748;13.194;2023-03-14T09:00:35;4.60;;;2.23;;
11771;SDS011;12556;55.748;13.194;2023-03-14T09:03:02;7.10;;;2.37;;
11771;SDS011;12556;55.748;13.194;2023-03-14T09:05:29;5.87;;;2.53;;
11771;SDS011;12556;55.748;13.194;2023-03-14T09:07:59;5.97;;;2.43;;
11771;SDS011;12556;55.748;13.194;2023-03-14T09:10:26;9.07;;;2.33;;
11771;SDS011;12556;55.748;13.194;2023-03-14T09:12:54;6.43;;;2.80;;
11771;SDS011;12556;55.748;13.194;2023-03-14T09:15:22;6.03;;;2.50;;
11771;SDS011;12556;55.748;13.194;2023-03-14T09:17:50;4.10;;;2.47;;
11771;SDS011;12556;55.748;13.194;2023-03-14T09:20:18;4.33;;;2.77;;
11771;SDS011;12556;55.748;13.194;2023-03-14T09:22:45;7.30;;;2.60;;
11771;SDS011;12556;55.748;13.194;2023-03-14T09:25:12;5.63;;;2.27;;
11771;SDS011;12556;55.748;13.194;2023-03-14T09:27:39;6.50;;;2.07;;
11771;SDS011;12556;55.748;13.194;2023-03-14T09:30:07;7.63;;;3.03;;
11771;SDS011;12556;55.748;13.194;2023-03-14T09:32:35;3.77;;;1.90;;
11771;SDS011;12556;55.748;13.194;2023-03-14T09:35:03;7.30;;;2.77;;
11771;SDS011;12556;55.748;13.194;2023-03-14T09:37:30;4.27;;;2.30;;
11771;SDS011;12556;55.748;13.194;2023-03-14T09:39:57;8.83;;;2.90;;
11771;SDS011;12556;55.748;13.194;2023-03-14T09:42:25;5.67;;;2.43;;
11771;SDS011;12556;55.748;13.194;2023-03-14T09:44:54;5.07;;;2.50;;
11771;SDS011;12556;55.748;13.194;2023-03-14T09:47:23;5.73;;;2.60;;
11771;SDS011;12556;55.748;13.194;2023-03-14T09:49:51;5.83;;;2.80;;
11771;SDS011;12556;55.748;13.194;2023-03-14T09:52:21;7.67;;;3.30;;
11771;SDS011;12556;55.748;13.194;2023-03-14T09:54:51;5.70;;;2.80;;
11771;SDS011;12556;55.748;13.194;2023-03-14T09:57:20;5.13;;;2.60;;
11771;SDS011;12556;55.748;13.194;2023-03-14T09:59:50;3.73;;;1.30;;
11771;SDS011;12556;55.748;13.194;2023-03-14T10:02:20;2.77;;;1.30;;
11771;SDS011;12556;55.748;13.194;2023-03-14T10:04:49;5.70;;;1.70;;
11771;SDS011;12556;55.748;13.194;2023-03-14T10:07:17;4.80;;;1.70;;
11771;SDS011;12556;55.748;13.194;2023-03-14T10:09:49;5.73;;;2.00;;
11771;SDS011;12556;55.748;13.194;2023-03-14T10:12:17;10.17;;;2.63;;
11771;SDS011;12556;55.748;13.194;2023-03-14T10:14:46;10.17;;;2.63;;
11771;SDS011;12556;55.748;13.194;2023-03-14T10:17:14;6.47;;;2.10;;
11771;SDS011;12556;55.748;13.194;2023-03-14T10:19:53;12.20;;;2.53;;
11771;SDS011;12556;55.748;13.194;2023-03-14T10:22:23;12.20;;;2.20;;
11771;SDS011;12556;55.748;13.194;2023-03-14T10:24:53;12.47;;;2.80;;
11771;SDS011;12556;55.748;13.194;2023-03-14T10:27:27;14.50;;;3.03;;
11771;SDS011;12556;55.748;13.194;2023-03-14T10:29:55;15.47;;;3.43;;
11771;SDS011;12556;55.748;13.194;2023-03-14T10:32:28;11.77;;;2.97;;
11771;SDS011;12556;55.748;13.194;2023-03-14T10:37:51;17.63;;;2.70;;
11771;SDS011;12556;55.748;13.194;2023-03-14T10:40:24;6.17;;;2.10;;
11771;SDS011;12556;55.748;13.194;2023-03-14T10:42:54;5.23;;;2.00;;
11771;SDS011;12556;55.748;13.194;2023-03-14T10:45:28;11.63;;;2.63;;
11771;SDS011;12556;55.748;13.194;2023-03-14T10:47:58;8.67;;;2.47;;
11771;SDS011;12556;55.748;13.194;2023-03-14T10:50:27;5.47;;;1.93;;
11771;SDS011;12556;55.748;13.194;2023-03-14T10:52:56;4.10;;;1.50;;
11771;SDS011;12556;55.748;13.194;2023-03-14T10:55:39;7.83;;;2.47;;
11771;SDS011;12556;55.748;13.194;2023-03-14T10:58:17;6.30;;;1.83;;
11771;SDS011;12556;55.748;13.194;2023-03-14T11:00:50;6.13;;;1.77;;
11771;SDS011;12556;55.748;13.194;2023-03-14T11:03:23;5.70;;;1.83;;
11771;SDS011;12556;55.748;13.194;2023-03-14T11:05:53;6.10;;;2.40;;
11771;SDS011;12556;55.748;13.194;2023-03-14T11:08:27;5.07;;;1.50;;
11771;SDS011;12556;55.748;13.194;2023-03-14T11:10:59;5.07;;;2.10;;
11771;SDS011;12556;55.748;13.194;2023-03-14T11:13:37;3.23;;;1.37;;
11771;SDS011;12556;55.748;13.194;2023-03-14T11:16:13;2.40;;;1.60;;
11771;SDS011;12556;55.748;13.194;2023-03-14T11:21:45;2.60;;;1.30;;
11771;SDS011;12556;55.748;13.194;2023-03-14T11:24:24;3.97;;;1.60;;
11771;SDS011;12556;55.748;13.194;2023-03-14T11:27:03;6.00;;;1.43;;
11771;SDS011;12556;55.748;13.194;2023-03-14T11:29:37;4.97;;;1.50;;
11771;SDS011;12556;55.748;13.194;2023-03-14T11:32:11;10.20;;;1.57;;
11771;SDS011;12556;55.748;13.194;2023-03-14T11:34:40;5.83;;;1.77;;
11771;SDS011;12556;55.748;13.194;2023-03-14T11:37:14;5.30;;;1.70;;
11771;SDS011;12556;55.748;13.194;2023-03-14T11:39:52;2.57;;;1.30;;
11771;SDS011;12556;55.748;13.194;2023-03-14T11:42:26;5.30;;;1.30;;
11771;SDS011;12556;55.748;13.194;2023-03-14T11:44:53;3.10;;;1.10;;
11771;SDS011;12556;55.748;13.194;2023-03-14T11:47:22;3.30;;;1.00;;
11771;SDS011;12556;55.748;13.194;2023-03-14T11:49:53;3.43;;;1.70;;
11771;SDS011;12556;55.748;13.194;2023-03-14T11:52:27;3.87;;;1.30;;
11771;SDS011;12556;55.748;13.194;2023-03-14T11:55:00;5.17;;;1.47;;
11771;SDS011;12556;55.748;13.194;2023-03-14T11:57:31;4.57;;;2.00;;
11771;SDS011;12556;55.748;13.194;2023-03-14T11:59:58;5.33;;;1.53;;
11771;SDS011;12556;55.748;13.194;2023-03-14T12:02:33;4.00;;;1.23;;
11771;SDS011;12556;55.748;13.194;2023-03-14T12:05:22;2.23;;;1.30;;
11771;SDS011;12556;55.748;13.194;2023-03-14T12:08:03;4.97;;;1.70;;
11771;SDS011;12556;55.748;13.194;2023-03-14T12:11:01;4.67;;;1.97;;
11771;SDS011;12556;55.748;13.194;2023-03-14T12:13:32;4.30;;;2.13;;
11771;SDS011;12556;55.748;13.194;2023-03-14T12:16:04;5.63;;;2.00;;
11771;SDS011;12556;55.748;13.194;2023-03-14T12:18:33;7.47;;;2.40;;
11771;SDS011;12556;55.748;13.194;2023-03-14T12:21:04;9.30;;;1.67;;
11771;SDS011;12556;55.748;13.194;2023-03-14T12:23:34;11.30;;;2.30;;
11771;SDS011;12556;55.748;13.194;2023-03-14T12:26:08;8.83;;;1.90;;
11771;SDS011;12556;55.748;13.194;2023-03-14T12:28:42;6.63;;;2.00;;
11771;SDS011;12556;55.748;13.194;2023-03-14T12:34:29;4.50;;;1.57;;
11771;SDS011;12556;55.748;13.194;2023-03-14T12:37:01;4.90;;;1.50;;
11771;SDS011;12556;55.748;13.194;2023-03-14T12:39:51;3.47;;;1.70;;
11771;SDS011;12556;55.748;13.194;2023-03-14T12:42:38;9.40;;;1.87;;
11771;SDS011;12556;55.748;13.194;2023-03-14T12:45:14;5.23;;;1.70;;
11771;SDS011;12556;55.748;13.194;2023-03-14T12:47:54;6.67;;;2.70;;
11771;SDS011;12556;55.748;13.194;2023-03-14T12:50:36;3.97;;;1.80;;
11771;SDS011;12556;55.748;13.194;2023-03-14T12:53:15;5.27;;;2.00;;
11771;SDS011;12556;55.748;13.194;2023-03-14T12:56:26;6.20;;;1.60;;
11771;SDS011;12556;55.748;13.194;2023-03-14T13:01:58;8.87;;;2.07;;
11771;SDS011;12556;55.748;13.194;2023-03-14T13:04:28;6.83;;;2.00;;
11771;SDS011;12556;55.748;13.194;2023-03-14T13:06:59;8.57;;;1.80;;
11771;SDS011;12556;55.748;13.194;2023-03-14T13:12:40;6.43;;;1.80;;
11771;SDS011;12556;55.748;13.194;2023-03-14T13:15:15;6.27;;;2.20;;
11771;SDS011;12556;55.748;13.194;2023-03-14T13:17:52;7.57;;;1.80;;
11771;SDS011;12556;55.748;13.194;2023-03-14T13:20:23;11.27;;;2.50;;
11771;SDS011;12556;55.748;13.194;2023-03-14T13:22:55;4.90;;;1.77;;
11771;SDS011;12556;55.748;13.194;2023-03-14T13:25:22;7.77;;;1.67;;
11771;SDS011;12556;55.748;13.194;2023-03-14T13:27:51;7.73;;;2.10;;
11771;SDS011;12556;55.748;13.194;2023-03-14T13:30:21;5.03;;;1.83;;
11771;SDS011;12556;55.748;13.194;2023-03-14T13:32:49;10.10;;;2.00;;
11771;SDS011;12556;55.748;13.194;2023-03-14T13:35:19;7.83;;;2.43;;
11771;SDS011;12556;55.748;13.194;2023-03-14T13:37:47;5.60;;;1.80;;
11771;SDS011;12556;55.748;13.194;2023-03-14T13:40:25;6.20;;;1.90;;
11771;SDS011;12556;55.748;13.194;2023-03-14T13:43:02;4.70;;;1.83;;
11771;SDS011;12556;55.748;13.194;2023-03-14T13:45:41;9.33;;;1.77;;
11771;SDS011;12556;55.748;13.194;2023-03-14T13:48:14;7.40;;;1.90;;
11771;SDS011;12556;55.748;13.194;2023-03-14T13:50:45;11.65;;;2.58;;
11771;SDS011;12556;55.748;13.194;2023-03-14T13:53:17;7.23;;;1.77;;
11771;SDS011;12556;55.748;13.194;2023-03-14T13:55:45;4.10;;;2.30;;
11771;SDS011;12556;55.748;13.194;2023-03-14T13:58:18;10.20;;;2.23;;
11771;SDS011;12556;55.748;13.194;2023-03-14T14:03:31;5.80;;;1.83;;
11771;SDS011;12556;55.748;13.194;2023-03-14T14:06:00;10.17;;;1.67;;
11771;SDS011;12556;55.748;13.194;2023-03-14T14:08:27;6.67;;;2.43;;
11771;SDS011;12556;55.748;13.194;2023-03-14T14:10:58;8.93;;;2.40;;
11771;SDS011;12556;55.748;13.194;2023-03-14T14:13:28;10.33;;;1.70;;
11771;SDS011;12556;55.748;13.194;2023-03-14T14:15:58;6.63;;;2.10;;
11771;SDS011;12556;55.748;13.194;2023-03-14T14:18:28;6.10;;;1.67;;
11771;SDS011;12556;55.748;13.194;2023-03-14T14:20:58;6.53;;;1.87;;
11771;SDS011;12556;55.748;13.194;2023-03-14T14:23:25;6.13;;;1.90;;
11771;SDS011;12556;55.748;13.194;2023-03-14T14:25:54;7.13;;;1.77;;
11771;SDS011;12556;55.748;13.194;2023-03-14T14:28:25;5.70;;;1.80;;
11771;SDS011;12556;55.748;13.194;2023-03-14T14:31:00;7.30;;;1.80;;
11771;SDS011;12556;55.748;13.194;2023-03-14T14:33:37;5.67;;;1.47;;
11771;SDS011;12556;55.748;13.194;2023-03-14T14:36:11;6.53;;;1.87;;
11771;SDS011;12556;55.748;13.194;2023-03-14T14:38:56;5.10;;;1.63;;
11771;SDS011;12556;55.748;13.194;2023-03-14T14:41:28;7.03;;;1.90;;
11771;SDS011;12556;55.748;13.194;2023-03-14T14:43:58;11.43;;;2.37;;
11771;SDS011;12556;55.748;13.194;2023-03-14T14:46:26;5.47;;;1.80;;
11771;SDS011;12556;55.748;13.194;2023-03-14T14:48:56;5.17;;;1.40;;
11771;SDS011;12556;55.748;13.194;2023-03-14T14:51:24;5.00;;;1.70;;
11771;SDS011;12556;55.748;13.194;2023-03-14T14:54:01;7.40;;;1.70;;
11771;SDS011;12556;55.748;13.194;2023-03-14T14:56:34;4.40;;;1.53;;
11771;SDS011;12556;55.748;13.194;2023-03-14T14:59:05;5.23;;;1.63;;
11771;SDS011;12556;55.748;13.194;2023-03-14T15:01:45;6.53;;;1.80;;
11771;SDS011;12556;55.748;13.194;2023-03-14T15:04:13;6.07;;;1.50;;